Time;durP1;ratioP1;P1;durP2;ratioP2;P2;SDS_P1;SDS_P2;PMS_P1;PMS_P2;Temp;Humidity;BMP_temperature;BMP_pressure;BME280_temperature;BME280_humidity;BME280_pressure;Samples;Min_cycle;Max_cycle;Signal;HPM_P1;HPM_P2
2021/08/07 00:02:15;;;;;;;2.38;1.58;;;24.00;50.70;;;;;;5135418;28;20047;-47
2021/08/07 00:04:41;;;;;;;2.58;1.70;;;24.00;50.80;;;;;;5135144;28;20051;-50
2021/08/07 00:07:07;;;;;;;2.30;1.90;;;24.00;50.80;;;;;;5116473;28;20054;-50
2021/08/07 00:09:33;;;;;;;2.20;1.38;;;23.90;50.70;;;;;;5135505;28;20059;-54
2021/08/07 00:11:59;;;;;;;3.72;1.60;;;23.90;50.80;;;;;;5134946;28;20487;-52
2021/08/07 00:14:25;;;;;;;2.20;1.70;;;23.90;51.30;;;;;;5134894;28;20050;-54
2021/08/07 00:16:52;;;;;;;3.83;2.00;;;23.90;50.80;;;;;;5135107;28;20051;-52
2021/08/07 00:19:17;;;;;;;2.08;1.70;;;23.90;50.80;;;;;;5134647;28;20387;-53
2021/08/07 00:21:43;;;;;;;1.75;1.60;;;23.90;50.80;;;;;;5134569;28;20126;-48
2021/08/07 00:24:08;;;;;;;2.10;1.50;;;23.90;50.90;;;;;;5135103;28;20388;-54
2021/08/07 00:26:34;;;;;;;2.58;1.90;;;23.90;50.90;;;;;;5134511;28;20059;-54
2021/08/07 00:28:59;;;;;;;2.33;1.88;;;23.90;50.90;;;;;;5134905;28;20058;-48
2021/08/07 00:31:26;;;;;;;3.05;1.60;;;23.90;50.90;;;;;;5134555;28;20066;-54
2021/08/07 00:33:52;;;;;;;2.15;1.60;;;23.90;50.90;;;;;;5116120;28;20050;-53
2021/08/07 00:36:18;;;;;;;2.80;1.70;;;23.80;50.90;;;;;;5114772;28;20502;-53
2021/08/07 00:38:44;;;;;;;2.28;1.70;;;23.80;50.90;;;;;;5115928;28;20042;-53
2021/08/07 00:41:09;;;;;;;2.53;1.70;;;23.80;50.90;;;;;;5116539;28;20364;-50
2021/08/07 00:43:35;;;;;;;2.13;1.58;;;23.80;51.00;;;;;;5099726;28;20062;-53
2021/08/07 00:46:07;;;;;;;1.75;1.52;;;23.80;51.00;;;;;;5115986;28;20502;-54
2021/08/07 00:48:35;;;;;;;2.70;1.55;;;23.80;51.00;;;;;;5114415;28;20040;-55
2021/08/07 00:51:04;;;;;;;3.55;1.80;;;23.80;51.00;;;;;;5116504;28;20485;-53
2021/08/07 00:53:30;;;;;;;2.08;1.40;;;23.80;51.00;;;;;;5115856;28;20100;-52
2021/08/07 00:56:04;;;;;;;2.70;1.60;;;23.80;51.10;;;;;;5116228;28;20487;-52
2021/08/07 00:58:35;;;;;;;2.95;1.90;;;23.80;51.10;;;;;;5114400;28;20052;-54
2021/08/07 01:01:05;;;;;;;1.83;1.55;;;23.80;51.10;;;;;;5115570;28;20043;-52
2021/08/07 01:03:35;;;;;;;2.13;1.60;;;23.80;51.10;;;;;;5115634;28;20061;-53
2021/08/07 01:06:21;;;;;;;1.90;1.60;;;23.80;51.10;;;;;;5115843;28;20467;-50
2021/08/07 01:09:26;;;;;;;1.80;1.70;;;23.80;51.10;;;;;;5114139;28;20051;-52
2021/08/07 01:12:02;;;;;;;3.58;1.50;;;23.70;51.10;;;;;;5088972;28;20043;-52
2021/08/07 01:14:42;;;;;;;2.28;1.33;;;23.80;51.10;;;;;;5115689;28;20063;-54
2021/08/07 01:17:13;;;;;;;3.88;1.80;;;23.70;51.10;;;;;;5115468;28;20047;-54
2021/08/07 01:19:53;;;;;;;2.17;1.38;;;23.70;51.20;;;;;;5113790;28;20054;-54
2021/08/07 01:22:31;;;;;;;3.28;1.50;;;23.70;51.20;;;;;;5115329;28;20474;-50
2021/08/07 01:25:03;;;;;;;2.22;1.58;;;23.70;51.20;;;;;;5115642;28;20055;-51
2021/08/07 01:27:36;;;;;;;2.25;1.35;;;23.80;51.20;;;;;;5115089;28;20047;-55
2021/08/07 01:30:17;;;;;;;1.52;1.42;;;23.70;51.20;;;;;;5115383;28;20047;-53
2021/08/07 01:32:44;;;;;;;1.52;1.42;;;23.70;51.20;;;;;;5114168;28;20056;-53
2021/08/07 01:35:11;;;;;;;2.63;1.77;;;23.70;51.20;;;;;;5115280;28;20043;-51
2021/08/07 01:37:44;;;;;;;1.55;1.45;;;23.70;51.20;;;;;;5133608;28;20099;-52
2021/08/07 01:40:30;;;;;;;1.90;1.50;;;23.70;51.30;;;;;;5132843;28;20135;-54
2021/08/07 01:43:07;;;;;;;4.18;1.60;;;23.70;51.30;;;;;;5115422;28;20051;-51
2021/08/07 01:45:38;;;;;;;1.60;1.38;;;23.70;51.30;;;;;;5115357;28;20069;-54
2021/08/07 01:48:22;;;;;;;1.85;1.50;;;23.70;51.30;;;;;;5114990;28;20051;-53
2021/08/07 01:50:58;;;;;;;2.45;1.98;;;23.70;51.30;;;;;;5113738;28;20047;-52
2021/08/07 01:53:28;;;;;;;1.77;1.60;;;23.70;51.30;;;;;;5114972;28;20138;-50
2021/08/07 01:56:31;;;;;;;1.92;1.52;;;23.70;51.40;;;;;;5114896;28;20505;-50
2021/08/07 01:59:04;;;;;;;2.08;1.75;;;23.70;51.40;;;;;;5113188;28;20058;-53
2021/08/07 02:01:32;;;;;;;2.10;1.52;;;23.60;51.40;;;;;;5115443;28;20047;-55
2021/08/07 02:04:00;;;;;;;1.70;1.55;;;23.60;51.40;;;;;;5114903;28;20104;-53
2021/08/07 02:06:31;;;;;;;1.50;1.40;;;23.60;51.40;;;;;;5115034;28;20055;-55
2021/08/07 02:08:58;;;;;;;2.13;1.50;;;23.60;51.40;;;;;;5113310;28;20044;-53
2021/08/07 02:11:34;;;;;;;1.70;1.60;;;23.60;51.40;;;;;;5118664;28;20055;-50
2021/08/07 02:14:05;;;;;;;3.42;1.80;;;23.60;51.40;;;;;;5118965;28;20051;-51
2021/08/07 02:16:34;;;;;;;2.00;1.48;;;23.60;51.40;;;;;;5118113;28;20142;-55
2021/08/07 02:19:01;;;;;;;2.00;1.65;;;23.60;51.40;;;;;;5118181;28;20501;-52
2021/08/07 02:21:33;;;;;;;3.17;1.63;;;23.60;51.40;;;;;;5118670;28;20051;-51
2021/08/07 02:23:59;;;;;;;2.10;1.60;;;23.60;51.40;;;;;;5118289;28;20403;-52
2021/08/07 02:26:28;;;;;;;1.85;1.33;;;23.60;51.40;;;;;;5118568;28;20393;-54
2021/08/07 02:29:03;;;;;;;1.70;1.50;;;23.60;51.50;;;;;;5118825;28;20138;-51
2021/08/07 02:31:30;;;;;;;2.42;1.45;;;23.60;51.50;;;;;;5116010;28;20467;-51
2021/08/07 02:33:57;;;;;;;1.42;1.33;;;23.60;51.50;;;;;;5117677;28;20047;-51
2021/08/07 02:36:25;;;;;;;2.35;1.60;;;23.60;51.50;;;;;;5117935;28;20059;-51
2021/08/07 02:38:58;;;;;;;2.28;1.42;;;23.60;51.60;;;;;;5117641;28;20558;-54
2021/08/07 02:41:24;;;;;;;1.63;1.50;;;23.60;51.50;;;;;;5118480;28;20047;-52
2021/08/07 02:43:53;;;;;;;1.77;1.50;;;23.60;51.50;;;;;;5117722;28;20058;-53
2021/08/07 02:46:20;;;;;;;2.38;1.42;;;23.60;51.60;;;;;;5117737;28;20047;-49
2021/08/07 02:48:50;;;;;;;1.60;1.25;;;23.60;51.60;;;;;;5118476;28;20046;-53
2021/08/07 02:51:17;;;;;;;1.80;1.50;;;23.60;51.60;;;;;;5136366;28;20047;-53
2021/08/07 02:53:50;;;;;;;1.85;1.48;;;23.60;51.60;;;;;;5117895;28;20107;-53
2021/08/07 02:56:18;;;;;;;1.65;1.55;;;23.60;51.60;;;;;;5118076;28;20075;-55
2021/08/07 02:58:44;;;;;;;2.38;1.50;;;23.60;51.70;;;;;;5117863;28;20047;-52
2021/08/07 03:01:09;;;;;;;2.03;1.52;;;23.50;51.60;;;;;;5116659;28;20063;-53
2021/08/07 03:03:36;;;;;;;3.10;1.55;;;23.60;51.70;;;;;;5117885;28;20470;-47
2021/08/07 03:06:03;;;;;;;1.63;1.35;;;23.60;51.70;;;;;;5117658;28;20051;-52
2021/08/07 03:08:30;;;;;;;1.85;1.50;;;23.60;51.70;;;;;;5117210;28;20052;-52
2021/08/07 03:10:57;;;;;;;1.35;1.25;;;23.50;51.70;;;;;;5116736;28;20051;-51
2021/08/07 03:13:25;;;;;;;2.40;1.42;;;23.50;51.70;;;;;;5117458;28;20047;-51
2021/08/07 03:15:51;;;;;;;1.77;1.60;;;23.50;51.70;;;;;;5117388;28;20090;-47
2021/08/07 03:18:22;;;;;;;1.77;1.52;;;23.50;51.70;;;;;;5115999;28;20040;-49
2021/08/07 03:20:48;;;;;;;2.92;1.58;;;23.50;51.70;;;;;;5116440;28;20513;-52
2021/08/07 03:23:16;;;;;;;1.40;1.30;;;23.50;51.70;;;;;;5117365;28;20043;-51
2021/08/07 03:25:54;;;;;;;2.45;1.30;;;23.50;51.70;;;;;;5117297;28;20051;-53
2021/08/07 03:28:21;;;;;;;1.85;1.40;;;23.50;51.70;;;;;;5116896;28;20051;-50
2021/08/07 03:30:47;;;;;;;3.08;1.60;;;23.50;51.80;;;;;;5117412;28;20480;-52
2021/08/07 03:33:13;;;;;;;2.33;1.35;;;23.50;51.70;;;;;;5116816;28;20051;-53
2021/08/07 03:35:38;;;;;;;1.58;1.40;;;23.40;51.70;;;;;;5117047;28;20494;-53
2021/08/07 03:38:04;;;;;;;1.38;1.27;;;23.50;51.70;;;;;;5117105;28;20143;-51
2021/08/07 03:40:30;;;;;;;1.75;1.50;;;23.50;51.80;;;;;;5135361;28;20062;-54
2021/08/07 03:42:57;;;;;;;2.60;1.50;;;23.50;51.80;;;;;;5116850;28;20465;-49
2021/08/07 03:45:25;;;;;;;2.03;1.40;;;23.50;51.80;;;;;;5117006;28;20051;-52
2021/08/07 03:47:55;;;;;;;2.25;0.98;;;23.50;51.80;;;;;;5117364;28;20050;-54
2021/08/07 03:50:27;;;;;;;1.77;1.50;;;23.50;51.90;;;;;;5116854;28;20054;-51
2021/08/07 03:52:53;;;;;;;1.70;1.50;;;23.50;51.90;;;;;;5135286;28;20047;-53
2021/08/07 03:55:19;;;;;;;2.25;1.63;;;23.40;51.80;;;;;;5135229;28;20047;-53
2021/08/07 03:57:50;;;;;;;2.33;1.42;;;23.40;52.40;;;;;;5116545;28;20472;-52
2021/08/07 04:00:28;;;;;;;1.40;1.30;;;23.40;51.90;;;;;;5117144;28;20133;-53
2021/08/07 04:02:57;;;;;;;1.77;1.35;;;23.50;51.90;;;;;;5116995;28;20406;-53
2021/08/07 04:05:23;;;;;;;1.38;1.27;;;23.50;51.90;;;;;;5116555;28;20136;-51
2021/08/07 04:07:51;;;;;;;2.10;1.60;;;23.50;51.90;;;;;;5116544;28;20047;-50
2021/08/07 04:10:18;;;;;;;1.60;1.42;;;23.50;51.90;;;;;;5116786;28;20058;-51
2021/08/07 04:12:44;;;;;;;1.60;1.50;;;23.40;51.80;;;;;;5116361;28;20047;-51
2021/08/07 04:15:11;;;;;;;1.55;1.35;;;23.50;51.90;;;;;;5116956;28;20055;-54
2021/08/07 04:17:38;;;;;;;1.70;1.50;;;23.40;51.80;;;;;;5116741;28;20183;-48
2021/08/07 04:20:09;;;;;;;1.60;1.48;;;23.50;51.90;;;;;;5116267;28;20153;-52
2021/08/07 04:22:35;;;;;;;2.33;1.50;;;23.40;51.90;;;;;;5134781;28;20228;-49
2021/08/07 04:25:04;;;;;;;1.70;1.35;;;23.40;51.90;;;;;;5116287;28;20072;-54
2021/08/07 04:27:34;;;;;;;1.38;1.27;;;23.50;51.90;;;;;;5116572;28;20051;-49
2021/08/07 04:30:00;;;;;;;1.48;1.38;;;23.50;51.90;;;;;;5134683;28;20050;-47
2021/08/07 04:32:26;;;;;;;1.85;1.40;;;23.50;51.90;;;;;;5116482;28;20055;-51
2021/08/07 04:34:57;;;;;;;1.35;1.25;;;23.50;52.00;;;;;;5116291;28;20058;-53
2021/08/07 04:37:23;;;;;;;1.45;1.30;;;23.40;51.90;;;;;;5115638;28;20055;-49
2021/08/07 04:39:49;;;;;;;1.20;1.10;;;23.50;52.00;;;;;;5134546;28;20368;-50
2021/08/07 04:42:16;;;;;;;1.48;1.35;;;23.50;51.90;;;;;;5115362;28;20060;-51
2021/08/07 04:44:42;;;;;;;1.58;1.25;;;23.40;51.90;;;;;;5116378;28;20055;-50
2021/08/07 04:47:08;;;;;;;2.10;1.50;;;23.40;51.90;;;;;;5099060;28;20483;-51
2021/08/07 04:49:36;;;;;;;1.50;1.40;;;23.40;51.90;;;;;;5115138;28;20047;-49
2021/08/07 04:52:02;;;;;;;3.28;1.65;;;23.50;51.90;;;;;;5114469;28;20054;-49
2021/08/07 04:54:28;;;;;;;1.90;1.50;;;23.40;51.80;;;;;;5115316;28;20039;-54
2021/08/07 04:56:54;;;;;;;1.60;1.40;;;23.40;51.80;;;;;;5134152;28;20070;-52
2021/08/07 04:59:20;;;;;;;1.52;1.20;;;23.50;51.90;;;;;;5114305;28;20100;-50
2021/08/07 05:01:46;;;;;;;1.73;1.30;;;23.50;51.80;;;;;;5134033;28;20398;-51
2021/08/07 05:04:12;;;;;;;1.98;1.48;;;23.50;51.80;;;;;;5116301;28;20062;-50
2021/08/07 05:06:39;;;;;;;1.60;1.50;;;23.50;51.80;;;;;;5115061;28;20078;-50
2021/08/07 05:09:06;;;;;;;1.98;1.40;;;23.50;51.80;;;;;;5114342;28;20522;-54
2021/08/07 05:11:40;;;;;;;2.88;1.60;;;23.50;51.80;;;;;;5115977;28;20058;-51
2021/08/07 05:14:07;;;;;;;1.50;1.35;;;23.50;51.80;;;;;;5115517;28;20051;-53
2021/08/07 05:16:33;;;;;;;1.40;1.30;;;23.50;51.80;;;;;;5115605;28;20043;-54
2021/08/07 05:18:58;;;;;;;1.30;1.20;;;23.50;51.80;;;;;;5133609;28;20439;-54
2021/08/07 05:21:27;;;;;;;2.08;1.30;;;23.50;51.70;;;;;;5115306;28;20055;-54
2021/08/07 05:23:52;;;;;;;1.50;1.40;;;23.50;51.80;;;;;;5134116;28;20050;-53
2021/08/07 05:26:18;;;;;;;1.65;1.40;;;23.50;51.70;;;;;;5133819;28;20082;-56
2021/08/07 05:28:45;;;;;;;1.42;1.25;;;23.60;51.70;;;;;;5115147;28;20043;-51
2021/08/07 05:31:11;;;;;;;1.50;1.40;;;23.60;51.70;;;;;;5115484;28;20051;-51
2021/08/07 05:33:38;;;;;;;1.30;1.20;;;23.60;51.70;;;;;;5113722;28;20048;-48
2021/08/07 05:36:05;;;;;;;1.40;1.27;;;23.60;51.60;;;;;;5115156;28;20043;-53
2021/08/07 05:38:30;;;;;;;1.75;1.52;;;23.60;51.60;;;;;;5115049;28;20463;-48
2021/08/07 05:40:56;;;;;;;1.42;1.17;;;23.70;51.60;;;;;;5114513;28;20058;-53
2021/08/07 05:43:21;;;;;;;2.03;1.30;;;23.70;51.50;;;;;;5113220;27;20407;-51
2021/08/07 05:45:49;;;;;;;1.35;1.25;;;23.70;51.50;;;;;;5114950;28;20039;-49
2021/08/07 05:48:18;;;;;;;1.60;1.50;;;23.70;51.30;;;;;;5133534;28;20053;-54
2021/08/07 05:50:44;;;;;;;1.40;1.27;;;23.70;51.30;;;;;;5114945;28;20051;-48
2021/08/07 05:53:10;;;;;;;1.58;1.48;;;23.80;51.30;;;;;;5114988;28;20085;-51
2021/08/07 05:55:36;;;;;;;2.33;1.15;;;23.80;51.20;;;;;;5098024;28;20078;-49
2021/08/07 05:58:03;;;;;;;1.50;1.40;;;23.80;51.10;;;;;;5114170;28;20079;-48
2021/08/07 06:00:30;;;;;;;1.88;1.27;;;23.80;51.10;;;;;;5114740;28;20085;-53
2021/08/07 06:02:55;;;;;;;1.38;1.27;;;23.80;51.00;;;;;;5113152;28;20079;-52
2021/08/07 06:05:34;;;;;;;1.35;1.20;;;23.80;51.00;;;;;;5100321;28;20077;-51
2021/08/07 06:08:03;;;;;;;1.75;1.30;;;23.80;51.00;;;;;;5098282;28;20047;-48
2021/08/07 06:10:30;;;;;;;1.10;1.00;;;23.90;51.00;;;;;;5113509;28;20055;-49
2021/08/07 06:12:56;;;;;;;1.77;1.45;;;23.90;51.00;;;;;;5115368;28;20082;-49
2021/08/07 06:15:23;;;;;;;1.70;1.42;;;23.90;51.00;;;;;;5114566;28;20058;-49
2021/08/07 06:17:50;;;;;;;1.42;1.08;;;23.90;50.90;;;;;;5115255;28;20059;-54
2021/08/07 06:20:15;;;;;;;1.15;1.00;;;23.90;50.90;;;;;;5115002;28;20039;-50
2021/08/07 06:22:46;;;;;;;1.52;1.38;;;23.90;50.90;;;;;;5115070;28;20055;-51
2021/08/07 06:25:12;;;;;;;1.52;1.30;;;23.90;50.90;;;;;;5133157;28;20104;-54
2021/08/07 06:27:38;;;;;;;1.60;1.30;;;23.90;50.80;;;;;;5114483;28;20482;-52
2021/08/07 06:30:04;;;;;;;1.52;1.25;;;24.00;50.90;;;;;;5114634;28;20088;-52
2021/08/07 06:32:30;;;;;;;1.30;1.20;;;24.00;51.00;;;;;;5114762;28;20047;-49
2021/08/07 06:34:56;;;;;;;1.92;1.30;;;24.00;50.80;;;;;;5114628;28;20062;-51
2021/08/07 06:37:23;;;;;;;1.05;1.02;;;24.00;50.80;;;;;;5114428;28;20491;-52
2021/08/07 06:39:49;;;;;;;1.23;1.05;;;24.10;50.60;;;;;;5114320;28;20139;-48
2021/08/07 06:42:14;;;;;;;1.98;1.20;;;24.10;50.50;;;;;;5114504;28;20082;-47
2021/08/07 06:44:58;;;;;;;1.67;1.58;;;24.10;50.40;;;;;;5132962;28;20134;-53
2021/08/07 06:47:24;;;;;;;1.65;1.35;;;24.10;50.40;;;;;;5114467;28;20079;-47
2021/08/07 06:49:50;;;;;;;1.27;1.08;;;24.10;50.40;;;;;;5114869;28;20039;-48
2021/08/07 06:52:16;;;;;;;1.40;1.30;;;24.10;50.40;;;;;;5114634;28;20392;-49
2021/08/07 06:54:44;;;;;;;1.50;1.40;;;24.20;50.40;;;;;;5114792;28;20047;-48
2021/08/07 06:57:17;;;;;;;1.67;1.25;;;24.20;50.90;;;;;;5117977;28;20051;-47
2021/08/07 06:59:44;;;;;;;1.38;1.20;;;24.20;50.40;;;;;;5115371;28;20403;-47
2021/08/07 07:02:10;;;;;;;1.80;1.45;;;24.20;50.40;;;;;;5118258;28;20205;-46
2021/08/07 07:04:36;;;;;;;1.30;1.17;;;24.20;50.30;;;;;;5117559;28;20047;-50
2021/08/07 07:07:03;;;;;;;1.27;1.10;;;24.20;50.30;;;;;;5117607;28;20055;-48
2021/08/07 07:09:29;;;;;;;1.63;1.20;;;24.20;50.30;;;;;;5136002;28;20083;-49
2021/08/07 07:11:55;;;;;;;1.60;1.20;;;24.20;50.40;;;;;;5136019;28;20578;-49
2021/08/07 07:14:20;;;;;;;2.35;1.50;;;24.20;50.30;;;;;;5116406;28;20048;-47
2021/08/07 07:16:47;;;;;;;1.83;1.30;;;24.20;50.40;;;;;;5117421;28;20062;-49
2021/08/07 07:19:14;;;;;;;1.35;1.25;;;24.20;50.40;;;;;;5135775;28;20108;-50
2021/08/07 07:21:40;;;;;;;1.48;1.38;;;24.20;50.40;;;;;;5116244;28;20146;-51
2021/08/07 07:24:06;;;;;;;1.95;1.20;;;24.20;50.40;;;;;;5117311;28;20047;-48
2021/08/07 07:26:33;;;;;;;1.50;1.40;;;24.20;50.40;;;;;;5117745;28;20043;-51
2021/08/07 07:28:59;;;;;;;1.30;1.08;;;24.20;50.40;;;;;;5117672;28;20453;-52
2021/08/07 07:31:25;;;;;;;1.25;1.10;;;24.20;50.50;;;;;;5117210;28;20051;-51
2021/08/07 07:33:52;;;;;;;1.20;1.10;;;24.10;50.40;;;;;;5116990;28;20494;-48
2021/08/07 07:36:18;;;;;;;2.22;1.30;;;24.10;50.50;;;;;;5135743;28;20073;-50
2021/08/07 07:38:43;;;;;;;2.35;1.40;;;24.20;50.50;;;;;;5117515;28;20066;-54
2021/08/07 07:41:11;;;;;;;1.25;1.15;;;24.20;50.50;;;;;;5117186;28;20047;-52
2021/08/07 07:43:37;;;;;;;1.10;1.10;;;24.10;50.50;;;;;;5117328;28;20047;-54
2021/08/07 07:46:04;;;;;;;1.15;1.05;;;24.10;50.50;;;;;;5116775;28;20051;-53
2021/08/07 07:48:29;;;;;;;1.30;1.20;;;24.10;50.50;;;;;;5116814;28;20055;-49
2021/08/07 07:50:55;;;;;;;1.30;1.20;;;24.10;50.50;;;;;;5135287;28;20047;-46
2021/08/07 07:53:21;;;;;;;1.75;1.25;;;24.10;50.50;;;;;;5135754;28;20431;-51
2021/08/07 07:55:46;;;;;;;1.25;1.15;;;24.10;50.50;;;;;;5117005;28;20051;-54
2021/08/07 07:58:12;;;;;;;1.30;1.20;;;24.10;50.50;;;;;;5115467;28;20054;-51
2021/08/07 08:00:38;;;;;;;1.08;0.93;;;24.20;50.40;;;;;;5114679;28;20052;-54
2021/08/07 08:03:04;;;;;;;1.42;1.17;;;24.20;50.40;;;;;;5116624;28;20054;-52
2021/08/07 08:05:42;;;;;;;1.77;1.40;;;24.20;50.20;;;;;;5117256;28;20059;-52
2021/08/07 08:08:08;;;;;;;1.25;1.15;;;24.30;50.20;;;;;;5115918;28;20160;-51
2021/08/07 08:10:36;;;;;;;1.23;1.13;;;24.30;50.10;;;;;;5116041;28;20407;-49
2021/08/07 08:13:03;;;;;;;1.75;1.20;;;24.30;50.00;;;;;;5116509;28;20058;-54
2021/08/07 08:15:29;;;;;;;1.40;1.30;;;24.30;50.00;;;;;;5116974;28;20103;-48
2021/08/07 08:17:54;;;;;;;1.83;1.20;;;24.30;49.90;;;;;;5116469;28;20053;-50
2021/08/07 08:20:20;;;;;;;1.30;1.20;;;24.30;49.90;;;;;;5116258;28;20138;-53
2021/08/07 08:22:47;;;;;;;2.15;1.35;;;24.40;49.90;;;;;;5116733;28;20047;-49
2021/08/07 08:25:14;;;;;;;0.90;0.90;;;24.30;49.80;;;;;;5116954;28;20047;-52
2021/08/07 08:27:40;;;;;;;1.95;1.10;;;24.40;49.80;;;;;;5099748;28;20141;-47
2021/08/07 08:30:08;;;;;;;1.58;1.25;;;24.40;49.80;;;;;;5116131;28;20073;-50
2021/08/07 08:32:34;;;;;;;1.30;1.10;;;24.40;49.80;;;;;;5134693;28;20119;-54
2021/08/07 08:35:00;;;;;;;1.08;1.00;;;24.40;49.80;;;;;;5116752;28;20069;-52
2021/08/07 08:37:26;;;;;;;1.83;1.58;;;24.50;49.80;;;;;;5115935;28;20475;-52
2021/08/07 08:39:52;;;;;;;0.90;0.90;;;24.50;49.60;;;;;;5115987;28;20509;-49
2021/08/07 08:42:20;;;;;;;1.38;1.27;;;24.50;49.50;;;;;;5116104;28;20047;-54
2021/08/07 08:44:46;;;;;;;1.40;1.30;;;24.60;49.40;;;;;;5115947;28;20141;-49
2021/08/07 08:47:14;;;;;;;1.30;1.20;;;24.60;49.40;;;;;;5116044;28;20099;-54
2021/08/07 08:49:44;;;;;;;2.08;1.33;;;24.70;49.30;;;;;;5134966;28;20073;-51
2021/08/07 08:52:09;;;;;;;1.20;1.10;;;24.70;49.20;;;;;;5116090;28;20402;-53
2021/08/07 08:54:36;;;;;;;1.40;1.30;;;24.70;49.10;;;;;;5116296;28;20058;-54
2021/08/07 08:57:01;;;;;;;1.70;1.30;;;24.80;49.20;;;;;;5116305;28;20051;-47
2021/08/07 08:59:27;;;;;;;1.02;1.00;;;24.80;49.10;;;;;;5115743;28;20047;-53
2021/08/07 09:01:54;;;;;;;1.33;1.10;;;24.80;49.10;;;;;;5115244;28;20158;-50
2021/08/07 09:04:23;;;;;;;1.75;1.48;;;24.80;49.00;;;;;;5115520;28;20620;-54
2021/08/07 09:06:49;;;;;;;1.35;1.23;;;24.80;49.00;;;;;;5114077;28;20051;-50
2021/08/07 09:09:15;;;;;;;0.88;0.88;;;24.80;48.90;;;;;;5115732;28;20486;-54
2021/08/07 09:11:51;;;;;;;1.33;1.20;;;24.90;48.90;;;;;;5115237;28;20058;-46
2021/08/07 09:14:18;;;;;;;1.33;1.20;;;24.90;48.80;;;;;;5116251;28;20493;-50
2021/08/07 09:17:04;;;;;;;1.20;1.10;;;24.90;48.80;;;;;;5115079;28;20051;-49
2021/08/07 09:19:39;;;;;;;1.25;1.15;;;24.90;48.80;;;;;;5114079;28;20047;-51
2021/08/07 09:22:27;;;;;;;0.98;0.90;;;25.00;48.80;;;;;;5114019;28;20047;-49
2021/08/07 09:25:13;;;;;;;1.20;1.10;;;25.00;48.80;;;;;;5115630;28;20047;-46
2021/08/07 09:27:46;;;;;;;1.10;0.93;;;25.00;48.70;;;;;;5115358;28;20078;-52
2021/08/07 09:30:28;;;;;;;1.42;1.25;;;25.00;48.60;;;;;;5115269;28;20047;-48
2021/08/07 09:33:02;;;;;;;1.30;1.20;;;25.00;48.60;;;;;;5114837;28;20060;-49
2021/08/07 09:35:45;;;;;;;1.13;1.13;;;25.00;48.50;;;;;;5115854;28;20055;-50
2021/08/07 09:38:23;;;;;;;1.20;1.10;;;25.00;48.40;;;;;;5115071;28;20051;-51
2021/08/07 09:41:06;;;;;;;1.20;1.10;;;25.10;48.40;;;;;;5115164;28;20051;-52
2021/08/07 09:43:47;;;;;;;1.17;1.00;;;25.10;48.40;;;;;;5115081;28;20514;-54
2021/08/07 09:46:20;;;;;;;1.20;1.02;;;25.10;48.30;;;;;;5114705;28;20445;-51
2021/08/07 09:48:53;;;;;;;1.20;1.10;;;25.20;48.30;;;;;;5113209;28;20052;-49
2021/08/07 09:51:23;;;;;;;1.27;1.02;;;25.20;48.30;;;;;;5115556;28;20111;-52
2021/08/07 09:54:12;;;;;;;1.27;1.17;;;25.20;48.20;;;;;;5115050;28;20062;-51
2021/08/07 09:56:52;;;;;;;1.00;0.90;;;25.20;48.20;;;;;;5113069;28;20059;-53
2021/08/07 09:59:22;;;;;;;1.30;1.20;;;25.20;48.10;;;;;;5115111;28;20086;-46
2021/08/07 10:01:49;;;;;;;1.17;1.08;;;25.20;48.10;;;;;;5114249;28;20054;-52
2021/08/07 10:04:17;;;;;;;1.33;1.10;;;25.20;48.00;;;;;;5114810;28;20051;-49
2021/08/07 10:06:47;;;;;;;;;;;25.30;48.00;;;;;;5133350;28;20057;-51
2021/08/07 10:09:29;;;;;;;1.00;1.00;;;25.30;48.00;;;;;;5114842;28;19922;-46
2021/08/07 10:12:10;;;;;;;1.20;1.10;;;25.30;47.90;;;;;;5112969;28;20167;-48
2021/08/07 10:14:42;;;;;;;0.82;0.82;;;25.40;48.40;;;;;;5114801;28;20043;-46
2021/08/07 10:17:11;;;;;;;0.95;0.95;;;25.40;47.90;;;;;;5114548;28;20192;-47
2021/08/07 10:19:41;;;;;;;1.13;1.02;;;25.40;47.80;;;;;;5114353;28;20135;-50
2021/08/07 10:22:10;;;;;;;1.20;1.10;;;25.40;47.80;;;;;;5114909;28;20478;-47
2021/08/07 10:24:44;;;;;;;1.27;1.17;;;25.40;47.70;;;;;;5133488;28;20051;-53
2021/08/07 10:27:12;;;;;;;0.97;0.97;;;25.40;47.70;;;;;;5114928;28;20402;-50
2021/08/07 10:29:47;;;;;;;0.90;0.90;;;25.40;47.70;;;;;;5114091;27;20481;-53
2021/08/07 10:32:15;;;;;;;1.00;1.00;;;25.40;47.70;;;;;;5117825;28;20405;-53
2021/08/07 10:34:45;;;;;;;0.88;0.88;;;25.40;47.70;;;;;;5137159;28;20051;-54
2021/08/07 10:37:12;;;;;;;1.10;1.00;;;25.40;47.80;;;;;;5118387;28;20390;-52
2021/08/07 10:39:38;;;;;;;1.58;1.10;;;25.40;47.80;;;;;;5117866;28;20051;-51
2021/08/07 10:42:06;;;;;;;1.35;1.25;;;25.40;47.80;;;;;;5136357;28;20097;-53
2021/08/07 10:44:32;;;;;;;1.20;1.10;;;25.40;47.80;;;;;;5116386;28;20101;-53
2021/08/07 10:46:58;;;;;;;1.40;1.30;;;25.40;47.80;;;;;;5117832;28;20047;-53
2021/08/07 10:49:35;;;;;;;1.20;1.10;;;25.40;47.80;;;;;;5117205;28;20051;-50
2021/08/07 10:52:06;;;;;;;1.20;1.10;;;25.40;47.70;;;;;;5117705;28;20047;-52
2021/08/07 10:54:37;;;;;;;1.00;1.00;;;25.50;47.80;;;;;;5136656;28;20054;-53
2021/08/07 10:57:03;;;;;;;1.02;1.02;;;25.40;47.70;;;;;;5136592;28;20089;-51
2021/08/07 10:59:30;;;;;;;1.10;1.00;;;25.50;47.70;;;;;;5135856;28;20475;-51
2021/08/07 11:01:57;;;;;;;0.95;0.95;;;25.50;47.70;;;;;;5136054;28;20139;-50
2021/08/07 11:04:27;;;;;;;1.10;1.00;;;25.50;47.60;;;;;;5136361;28;20051;-50
2021/08/07 11:06:58;;;;;;;1.10;1.00;;;25.50;47.60;;;;;;5136296;28;20054;-51
2021/08/07 11:09:41;;;;;;;1.20;1.13;;;25.50;47.60;;;;;;5135101;28;20039;-54
2021/08/07 11:12:06;;;;;;;1.30;1.13;;;25.50;47.60;;;;;;5136047;28;20094;-53
2021/08/07 11:14:44;;;;;;;1.13;1.02;;;25.50;47.60;;;;;;5136440;28;20074;-53
2021/08/07 11:17:12;;;;;;;1.60;1.00;;;25.50;47.60;;;;;;5117172;28;20047;-49
2021/08/07 11:20:12;;;;;;;1.23;1.00;;;25.50;47.60;;;;;;5135657;28;20051;-52
2021/08/07 11:22:38;;;;;;;1.50;1.10;;;25.50;47.50;;;;;;5136398;28;20055;-49
2021/08/07 11:25:22;;;;;;;1.17;1.08;;;25.50;47.50;;;;;;5136001;28;20049;-48
2021/08/07 11:30:28;;;;;;;0.98;0.98;;;25.60;47.60;;;;;;5135994;28;20553;-50
2021/08/07 11:33:03;;;;;;;1.05;1.00;;;25.60;47.60;;;;;;5117437;28;20050;-50
2021/08/07 11:38:09;;;;;;;0.93;0.93;;;25.60;47.40;;;;;;5135737;28;20046;-54
2021/08/07 11:40:56;;;;;;;1.17;1.00;;;25.70;47.30;;;;;;5135429;28;20480;-53
2021/08/07 11:43:27;;;;;;;1.00;1.00;;;25.70;47.30;;;;;;5134548;27;20059;-52
2021/08/07 11:45:57;;;;;;;1.00;0.95;;;25.70;47.20;;;;;;5135543;28;20049;-52
2021/08/07 11:48:27;;;;;;;1.00;0.90;;;25.70;47.20;;;;;;5135512;28;20375;-51
2021/08/07 11:50:53;;;;;;;0.98;0.93;;;25.70;47.20;;;;;;5135404;28;20046;-52
2021/08/07 11:53:20;;;;;;;1.10;1.08;;;25.70;47.20;;;;;;5135258;28;20061;-50
2021/08/07 11:55:55;;;;;;;0.90;0.80;;;25.70;47.20;;;;;;5117170;28;20133;-54
2021/08/07 11:58:21;;;;;;;1.13;1.02;;;25.70;47.20;;;;;;5135544;28;20051;-53
2021/08/07 12:00:46;;;;;;;1.20;1.10;;;25.80;47.30;;;;;;5135052;28;20043;-51
2021/08/07 12:03:13;;;;;;;1.55;1.02;;;25.70;47.10;;;;;;5135538;28;20107;-46
2021/08/07 12:05:54;;;;;;;1.10;0.90;;;25.80;47.10;;;;;;5135067;28;20444;-48
2021/08/07 12:08:21;;;;;;;1.10;1.00;;;25.80;47.10;;;;;;5116860;28;20066;-49
2021/08/07 12:10:49;;;;;;;1.17;1.08;;;25.80;47.10;;;;;;5134936;28;20062;-49
2021/08/07 12:13:23;;;;;;;1.67;1.25;;;25.80;47.00;;;;;;5134997;28;20498;-46
2021/08/07 12:16:04;;;;;;;1.20;1.00;;;25.80;47.10;;;;;;5134774;28;20051;-48
2021/08/07 12:18:39;;;;;;;1.38;1.15;;;25.80;47.00;;;;;;5135065;28;20061;-50
2021/08/07 12:21:05;;;;;;;1.00;0.95;;;25.90;47.00;;;;;;5134860;28;20093;-49
2021/08/07 12:23:41;;;;;;;1.17;1.08;;;25.90;46.90;;;;;;5116844;28;20471;-50
2021/08/07 12:26:07;;;;;;;0.90;0.90;;;25.90;46.90;;;;;;5135461;28;20066;-51
2021/08/07 12:28:33;;;;;;;1.33;1.23;;;25.90;46.90;;;;;;5134951;28;20046;-49
2021/08/07 12:31:03;;;;;;;1.10;1.00;;;25.90;46.80;;;;;;5134969;28;20043;-52
2021/08/07 12:33:34;;;;;;;1.02;1.00;;;26.00;46.80;;;;;;5134762;28;20047;-48
2021/08/07 12:36:13;;;;;;;1.20;1.08;;;26.00;46.80;;;;;;5134796;28;20058;-51
2021/08/07 12:38:45;;;;;;;0.93;0.93;;;26.00;46.80;;;;;;5134510;28;20066;-48
2021/08/07 12:41:13;;;;;;;0.90;0.90;;;25.90;46.70;;;;;;5134561;28;20131;-53
2021/08/07 12:43:38;;;;;;;1.02;0.93;;;25.90;46.70;;;;;;5134519;28;20059;-51
2021/08/07 12:46:09;;;;;;;1.10;1.00;;;26.00;46.70;;;;;;5134889;28;20478;-50
2021/08/07 12:48:53;;;;;;;1.00;0.93;;;26.00;46.70;;;;;;5134679;28;20047;-49
2021/08/07 12:51:35;;;;;;;1.10;1.00;;;26.00;46.70;;;;;;5134687;28;20055;-51
2021/08/07 12:54:13;;;;;;;1.00;0.95;;;26.00;46.70;;;;;;5134177;27;20099;-50
2021/08/07 12:56:48;;;;;;;0.80;0.80;;;26.10;46.60;;;;;;5134553;28;20184;-47
2021/08/07 12:59:17;;;;;;;1.00;1.00;;;26.00;46.60;;;;;;5134124;28;20062;-50
2021/08/07 13:01:59;;;;;;;0.98;0.90;;;26.00;46.60;;;;;;5133972;28;20051;-47
2021/08/07 13:04:43;;;;;;;1.20;1.10;;;26.00;46.70;;;;;;5134585;28;20050;-47
2021/08/07 13:07:08;;;;;;;0.90;0.90;;;26.00;46.80;;;;;;5114645;28;20075;-49